createdAt,value
2018-03-20T00:02:02.899Z,40.03
2018-03-20T00:04:30.598Z,46.07
2018-03-20T00:06:58.206Z,42.00
2018-03-20T00:09:25.920Z,40.27
2018-03-20T00:11:53.509Z,43.53
2018-03-20T00:14:21.159Z,39.90
2018-03-20T00:16:48.757Z,38.63
2018-03-20T00:19:16.454Z,36.67
2018-03-20T00:21:44.049Z,42.17
2018-03-20T00:24:11.695Z,45.97
2018-03-20T00:26:39.288Z,43.63
2018-03-20T00:29:06.937Z,46.03
2018-03-20T00:31:34.557Z,41.97
2018-03-20T00:34:02.219Z,44.83
2018-03-20T00:36:29.824Z,40.27
2018-03-20T00:38:57.428Z,42.70
2018-03-20T00:41:25.083Z,49.00
2018-03-20T00:43:52.709Z,37.90
2018-03-20T00:46:20.348Z,43.17
2018-03-20T00:48:47.987Z,44.97
2018-03-20T00:51:15.585Z,45.30
2018-03-20T00:53:43.219Z,42.83
2018-03-20T00:56:10.866Z,45.37
2018-03-20T00:58:38.540Z,43.63
2018-03-20T01:01:06.203Z,41.03
2018-03-20T01:03:33.785Z,39.67
2018-03-20T01:06:01.408Z,34.20
2018-03-20T01:08:29.012Z,47.93
2018-03-20T01:10:56.725Z,40.27
2018-03-20T01:13:24.310Z,42.23
2018-03-20T01:15:51.954Z,42.23
2018-03-20T01:18:19.553Z,40.93
2018-03-20T01:20:47.207Z,33.63
2018-03-20T01:23:14.868Z,36.40
2018-03-20T01:25:42.566Z,36.50
2018-03-20T01:28:10.163Z,44.10
2018-03-20T01:30:38.894Z,37.27
2018-03-20T01:33:06.530Z,45.97
2018-03-20T01:35:34.178Z,38.33
2018-03-20T01:38:01.878Z,35.10
2018-03-20T01:40:29.553Z,37.90
2018-03-20T01:42:57.214Z,39.30
2018-03-20T01:45:24.851Z,38.87
2018-03-20T01:47:52.471Z,40.80
2018-03-20T01:50:20.115Z,38.90
2018-03-20T01:52:47.803Z,39.83
2018-03-20T01:55:15.460Z,39.53
2018-03-20T01:57:43.095Z,47.40
2018-03-20T02:00:10.707Z,37.47
2018-03-20T02:02:38.401Z,43.43
2018-03-20T02:05:06.158Z,43.73
2018-03-20T02:07:33.754Z,52.20
2018-03-20T02:10:01.402Z,39.80
2018-03-20T02:12:29.039Z,35.37
2018-03-20T02:14:56.628Z,39.93
2018-03-20T02:17:24.269Z,43.50
2018-03-20T02:19:51.905Z,37.23
2018-03-20T02:22:19.543Z,41.97
2018-03-20T02:24:47.189Z,45.00
2018-03-20T02:27:14.864Z,41.97
2018-03-20T02:29:42.480Z,44.43
2018-03-20T02:32:10.155Z,44.80
2018-03-20T02:34:37.760Z,47.77
2018-03-20T02:37:05.437Z,48.30
2018-03-20T02:39:33.034Z,36.37
2018-03-20T02:42:00.656Z,44.97
2018-03-20T02:44:28.323Z,44.37
2018-03-20T02:46:56.088Z,50.43
2018-03-20T02:49:23.679Z,42.07
2018-03-20T02:51:51.363Z,48.50
2018-03-20T02:54:19.007Z,45.27
2018-03-20T02:56:46.858Z,41.37
2018-03-20T02:59:14.492Z,41.23
2018-03-20T03:01:42.221Z,41.40
2018-03-20T03:04:10.120Z,46.57
2018-03-20T03:06:37.808Z,55.10
2018-03-20T03:09:05.463Z,43.67
2018-03-20T03:11:33.075Z,39.93
2018-03-20T03:14:00.749Z,38.97
2018-03-20T03:16:28.341Z,36.33
2018-03-20T03:18:56.010Z,45.23
2018-03-20T03:21:23.668Z,44.90
2018-03-20T03:23:51.265Z,44.50
2018-03-20T03:26:18.935Z,41.43
2018-03-20T03:28:46.613Z,51.87
2018-03-20T03:31:14.258Z,41.53
2018-03-20T03:33:41.931Z,51.77
2018-03-20T03:36:09.596Z,50.17
2018-03-20T03:38:37.290Z,41.90
2018-03-20T03:41:04.908Z,49.10
2018-03-20T03:43:32.621Z,45.77
2018-03-20T03:46:00.266Z,40.00
2018-03-20T03:48:27.923Z,41.50
2018-03-20T03:50:55.681Z,39.97
2018-03-20T03:53:23.276Z,48.13
2018-03-20T03:55:50.914Z,42.73
2018-03-20T03:58:18.626Z,48.30
2018-03-20T04:00:46.265Z,45.70
2018-03-20T04:03:13.903Z,45.63
2018-03-20T04:05:41.497Z,37.73
2018-03-20T04:08:09.219Z,42.23
2018-03-20T04:10:37.313Z,43.93
2018-03-20T04:13:05.016Z,42.47
2018-03-20T04:15:32.685Z,42.43
2018-03-20T04:18:00.334Z,42.93
2018-03-20T04:20:28.033Z,42.93
2018-03-20T04:22:55.674Z,53.23
2018-03-20T04:25:23.339Z,40.80
2018-03-20T04:27:50.950Z,42.37
2018-03-20T04:30:18.561Z,38.43
2018-03-20T04:32:46.196Z,47.07
2018-03-20T04:35:13.871Z,37.77
2018-03-20T04:37:41.459Z,43.47
2018-03-20T04:40:10.500Z,39.50
2018-03-20T04:42:39.134Z,42.93
2018-03-20T04:45:06.730Z,41.97
2018-03-20T04:47:34.391Z,41.20
2018-03-20T04:50:01.992Z,36.87
2018-03-20T04:52:29.647Z,49.20
2018-03-20T04:54:57.273Z,46.00
2018-03-20T04:57:24.979Z,41.27
2018-03-20T04:59:52.631Z,53.47
2018-03-20T05:02:20.305Z,43.53
2018-03-20T05:04:48.001Z,51.87
2018-03-20T05:07:15.664Z,50.57
2018-03-20T05:09:43.341Z,38.97
2018-03-20T05:12:11.017Z,42.07
2018-03-20T05:14:38.701Z,42.50
2018-03-20T05:17:06.473Z,38.80
2018-03-20T05:19:49.962Z,44.73
2018-03-20T05:22:32.490Z,43.90
2018-03-20T05:25:00.206Z,43.10
2018-03-20T05:27:28.211Z,44.43
2018-03-20T05:29:55.970Z,53.03
2018-03-20T05:32:23.672Z,46.30
2018-03-20T05:34:51.328Z,40.33
2018-03-20T05:37:18.968Z,41.97
2018-03-20T05:39:46.651Z,47.37
2018-03-20T05:42:14.313Z,53.33
2018-03-20T05:44:42.025Z,51.30
2018-03-20T05:47:20.457Z,46.27
2018-03-20T05:50:03.829Z,47.90
2018-03-20T05:52:31.591Z,42.27
2018-03-20T05:54:59.369Z,40.77
2018-03-20T05:57:27.870Z,44.03
2018-03-20T05:59:55.528Z,49.97
2018-03-20T06:02:23.260Z,51.60
2018-03-20T06:04:50.893Z,54.30
2018-03-20T06:07:18.550Z,46.23
2018-03-20T06:09:46.208Z,40.40
2018-03-20T06:12:13.915Z,51.27
2018-03-20T06:14:41.530Z,46.60
2018-03-20T06:17:09.213Z,44.10
2018-03-20T06:19:36.889Z,44.33
2018-03-20T06:22:04.534Z,56.17
2018-03-20T06:24:32.148Z,43.70
2018-03-20T06:26:59.843Z,38.67
2018-03-20T06:29:27.472Z,49.17
2018-03-20T06:31:55.122Z,50.77
2018-03-20T06:34:22.708Z,49.20
2018-03-20T06:36:51.205Z,48.90
2018-03-20T06:39:18.818Z,49.33
2018-03-20T06:41:46.485Z,34.47
2018-03-20T06:44:14.150Z,60.07
2018-03-20T06:46:41.826Z,53.13
2018-03-20T06:49:09.424Z,44.80
2018-03-20T06:51:37.073Z,47.40
2018-03-20T06:54:04.736Z,50.70
2018-03-20T06:56:32.359Z,44.00
2018-03-20T06:59:00.015Z,44.60
2018-03-20T07:01:27.721Z,46.43
2018-03-20T07:03:55.380Z,40.77
2018-03-20T07:06:22.986Z,54.10
2018-03-20T07:08:50.668Z,44.57
2018-03-20T07:11:18.304Z,53.17
2018-03-20T07:13:45.962Z,47.13
2018-03-20T07:16:13.599Z,52.77
2018-03-20T07:18:41.263Z,45.70
2018-03-20T07:21:08.897Z,44.83
2018-03-20T07:23:36.573Z,43.73
2018-03-20T07:26:04.235Z,51.30
2018-03-20T07:28:31.870Z,42.73
2018-03-20T07:30:59.551Z,41.93
2018-03-20T07:33:27.217Z,37.60
2018-03-20T07:35:54.894Z,54.70
2018-03-20T07:38:22.531Z,49.20
2018-03-20T07:40:50.195Z,40.50
2018-03-20T07:43:18.638Z,43.73
2018-03-20T07:45:46.349Z,42.53
2018-03-20T07:48:13.975Z,44.37
2018-03-20T07:50:41.582Z,42.93
2018-03-20T07:53:09.282Z,42.03
2018-03-20T07:55:36.928Z,40.03
2018-03-20T07:58:04.561Z,41.07
2018-03-20T08:00:32.238Z,47.20
2018-03-20T08:02:59.842Z,39.80
2018-03-20T08:05:27.480Z,45.33
2018-03-20T08:07:55.154Z,40.37
2018-03-20T08:10:22.806Z,45.43
2018-03-20T08:12:50.435Z,40.77
2018-03-20T08:15:18.066Z,40.43
2018-03-20T08:17:45.668Z,40.63
2018-03-20T08:20:13.478Z,44.43
2018-03-20T08:22:41.074Z,43.10
2018-03-20T08:25:08.738Z,40.70
2018-03-20T08:27:36.452Z,35.93
2018-03-20T08:30:04.167Z,38.83
2018-03-20T08:32:31.842Z,43.90
2018-03-20T08:34:59.481Z,39.83
2018-03-20T08:37:27.136Z,40.13
2018-03-20T08:39:54.737Z,34.60
2018-03-20T08:42:22.344Z,32.23
2018-03-20T08:44:50.021Z,30.93
2018-03-20T08:47:17.636Z,35.97
2018-03-20T08:49:45.303Z,39.90
2018-03-20T08:52:12.966Z,35.00
2018-03-20T08:54:40.607Z,38.60
2018-03-20T08:57:08.355Z,36.73
2018-03-20T08:59:35.984Z,38.50
2018-03-20T09:02:03.614Z,32.33
2018-03-20T09:04:31.253Z,45.63
2018-03-20T09:06:58.930Z,42.57
2018-03-20T09:09:26.594Z,35.10
2018-03-20T09:11:54.319Z,35.43
2018-03-20T09:14:21.968Z,34.63
2018-03-20T09:16:49.638Z,44.23
2018-03-20T09:19:17.272Z,32.07
2018-03-20T09:21:44.954Z,37.10
2018-03-20T09:24:12.572Z,38.60
2018-03-20T09:26:40.277Z,51.33
2018-03-20T09:29:07.921Z,48.33
2018-03-20T09:31:35.583Z,40.10
2018-03-20T09:34:03.390Z,43.53
2018-03-20T09:36:31.101Z,46.87
2018-03-20T09:38:58.718Z,40.23
2018-03-20T09:41:26.382Z,41.67
2018-03-20T09:43:54.592Z,44.07
2018-03-20T09:46:22.201Z,40.17
2018-03-20T09:48:49.851Z,40.57
2018-03-20T09:51:17.528Z,50.43
2018-03-20T09:53:45.136Z,58.87
2018-03-20T09:56:12.759Z,55.70
2018-03-20T09:58:40.407Z,46.63
2018-03-20T10:01:08.082Z,40.07
2018-03-20T10:03:35.708Z,41.33
2018-03-20T10:06:03.317Z,60.27
2018-03-20T10:08:30.989Z,43.43
2018-03-20T10:10:58.688Z,56.90
2018-03-20T10:13:26.341Z,34.17
2018-03-20T10:15:53.982Z,38.80
2018-03-20T10:18:21.645Z,44.57
2018-03-20T10:20:49.240Z,40.47
2018-03-20T10:23:16.919Z,45.53
2018-03-20T10:25:44.533Z,38.57
2018-03-20T10:28:12.132Z,41.20
2018-03-20T10:30:39.770Z,37.87
2018-03-20T10:33:07.406Z,30.27
2018-03-20T10:35:35.060Z,41.57
2018-03-20T10:38:02.648Z,33.33
2018-03-20T10:40:30.341Z,32.63
2018-03-20T10:42:58.002Z,34.57
2018-03-20T10:45:25.674Z,35.53
2018-03-20T10:47:53.317Z,33.07
2018-03-20T10:50:21.003Z,46.17
2018-03-20T10:52:48.611Z,37.07
2018-03-20T10:55:16.261Z,39.50
2018-03-20T10:57:43.960Z,27.17
2018-03-20T11:00:12.565Z,39.17
2018-03-20T11:02:45.729Z,37.77
2018-03-20T11:05:13.408Z,31.77
2018-03-20T11:07:41.041Z,38.40
2018-03-20T11:10:08.690Z,49.00
2018-03-20T11:12:36.294Z,32.37
2018-03-20T11:15:04.015Z,33.77
2018-03-20T11:17:31.867Z,30.67
2018-03-20T11:19:59.875Z,33.07
2018-03-20T11:22:27.520Z,31.73
2018-03-20T11:24:55.196Z,44.27
2018-03-20T11:27:22.809Z,46.27
2018-03-20T11:29:50.477Z,33.60
2018-03-20T11:32:18.237Z,31.27
2018-03-20T11:34:46.030Z,40.40
2018-03-20T11:37:13.677Z,36.57
2018-03-20T11:39:41.335Z,34.90
2018-03-20T11:42:09.004Z,31.53
2018-03-20T11:44:36.727Z,32.17
2018-03-20T11:47:04.361Z,39.20
2018-03-20T11:49:32.049Z,35.53
2018-03-20T11:51:59.791Z,40.63
2018-03-20T11:54:27.460Z,39.07
2018-03-20T11:56:55.067Z,37.90
2018-03-20T11:59:22.720Z,39.23
2018-03-20T12:01:50.337Z,43.10
2018-03-20T12:04:18.001Z,33.30
2018-03-20T12:06:45.611Z,37.40
2018-03-20T12:09:24.863Z,29.07
2018-03-20T12:11:52.460Z,36.20
2018-03-20T12:14:20.077Z,47.37
2018-03-20T12:16:49.031Z,38.20
2018-03-20T12:19:16.633Z,37.43
2018-03-20T12:21:44.396Z,37.20
2018-03-20T12:24:12.096Z,36.37
2018-03-20T12:26:39.742Z,37.63
2018-03-20T12:29:07.508Z,48.90
2018-03-20T12:31:35.213Z,31.33
2018-03-20T12:34:02.925Z,47.77
2018-03-20T12:36:31.734Z,48.63
2018-03-20T12:38:59.441Z,37.13
2018-03-20T12:41:27.040Z,39.47
2018-03-20T12:43:54.759Z,35.37
2018-03-20T12:46:22.463Z,40.60
2018-03-20T12:48:50.394Z,44.73
2018-03-20T12:51:18.556Z,35.67
2018-03-20T12:53:46.298Z,37.57
2018-03-20T12:56:13.954Z,36.47
2018-03-20T12:58:41.660Z,37.70
2018-03-20T13:01:09.388Z,37.87
2018-03-20T13:03:37.079Z,36.90
2018-03-20T13:06:04.863Z,41.93
2018-03-20T13:08:32.499Z,49.90
2018-03-20T13:11:00.208Z,41.73
2018-03-20T13:13:27.856Z,41.10
2018-03-20T13:15:55.649Z,41.43
2018-03-20T13:18:23.402Z,37.40
2018-03-20T13:20:51.155Z,34.00
2018-03-20T13:23:18.947Z,35.77
2018-03-20T13:25:46.617Z,38.87
2018-03-20T13:28:14.320Z,43.00
2018-03-20T13:30:42.039Z,52.50
2018-03-20T13:33:09.825Z,38.17
2018-03-20T13:35:37.683Z,42.33
2018-03-20T13:38:05.593Z,39.70
2018-03-20T13:40:33.294Z,45.60
2018-03-20T13:43:01.039Z,41.90
2018-03-20T13:45:29.295Z,43.77
2018-03-20T13:47:56.992Z,45.10
2018-03-20T13:50:25.718Z,43.13
2018-03-20T13:52:53.491Z,39.73
2018-03-20T13:55:21.230Z,49.30
2018-03-20T13:57:48.959Z,35.90
2018-03-20T14:00:16.836Z,39.57
2018-03-20T14:02:45.618Z,53.40
2018-03-20T14:05:13.531Z,42.60
2018-03-20T14:07:41.245Z,45.40
2018-03-20T14:10:10.124Z,48.90
2018-03-20T14:12:38.326Z,48.40
2018-03-20T14:15:06.317Z,43.83
2018-03-20T14:17:34.326Z,46.63
2018-03-20T14:20:02.225Z,44.67
2018-03-20T14:22:29.933Z,35.90
2018-03-20T14:24:57.670Z,49.17
2018-03-20T14:27:25.408Z,46.27
2018-03-20T14:29:53.064Z,51.43
2018-03-20T14:32:20.791Z,53.50
2018-03-20T14:34:48.532Z,37.03
2018-03-20T14:37:16.380Z,46.40
2018-03-20T14:39:44.197Z,43.00
2018-03-20T14:42:12.029Z,46.03
2018-03-20T14:44:39.793Z,40.07
2018-03-20T14:47:07.540Z,42.70
2018-03-20T14:49:35.331Z,47.10
2018-03-20T14:52:02.977Z,41.83
2018-03-20T14:54:30.847Z,47.67
2018-03-20T14:56:58.546Z,35.90
2018-03-20T14:59:26.224Z,41.20
2018-03-20T15:01:53.953Z,48.43
2018-03-20T15:04:21.580Z,44.13
2018-03-20T15:06:49.231Z,35.43
2018-03-20T15:09:16.938Z,36.30
2018-03-20T15:11:44.705Z,47.27
2018-03-20T15:14:12.407Z,41.73
2018-03-20T15:16:40.108Z,37.20
2018-03-20T15:19:07.817Z,47.50
2018-03-20T15:21:35.520Z,48.57
2018-03-20T15:24:03.247Z,50.43
2018-03-20T15:26:32.190Z,45.67
2018-03-20T15:28:59.869Z,42.20
2018-03-20T15:31:27.588Z,57.73
2018-03-20T15:33:55.362Z,77.47
2018-03-20T15:36:23.198Z,61.10
2018-03-20T15:38:51.823Z,46.60
2018-03-20T15:41:19.501Z,54.10
2018-03-20T15:43:47.245Z,47.33
2018-03-20T15:46:15.053Z,45.00
2018-03-20T15:48:42.928Z,41.87
2018-03-20T15:51:10.644Z,51.97
2018-03-20T15:53:38.283Z,43.07
2018-03-20T15:56:06.069Z,55.10
2018-03-20T15:58:33.834Z,53.40
2018-03-20T16:01:01.490Z,43.20
2018-03-20T16:03:29.263Z,49.40
2018-03-20T16:05:57.160Z,43.07
2018-03-20T16:08:25.083Z,53.37
2018-03-20T16:10:52.787Z,51.10
2018-03-20T16:13:20.513Z,47.83
2018-03-20T16:15:48.195Z,43.17
2018-03-20T16:18:15.928Z,40.80
2018-03-20T16:20:43.544Z,48.73
2018-03-20T16:23:11.330Z,49.43
2018-03-20T16:25:40.025Z,60.80
2018-03-20T16:28:07.777Z,55.13
2018-03-20T16:30:35.550Z,47.03
2018-03-20T16:33:03.456Z,57.27
2018-03-20T16:35:31.101Z,43.20
2018-03-20T16:37:58.828Z,45.00
2018-03-20T16:40:26.552Z,51.03
2018-03-20T16:43:01.546Z,41.43
2018-03-20T16:45:29.366Z,36.33
2018-03-20T16:47:58.354Z,44.40
2018-03-20T16:50:27.217Z,47.17
2018-03-20T16:52:55.759Z,40.07
2018-03-20T16:55:23.443Z,46.50
2018-03-20T16:57:51.217Z,59.50
2018-03-20T17:00:18.927Z,47.83
2018-03-20T17:02:46.653Z,46.20
2018-03-20T17:05:15.081Z,38.20
2018-03-20T17:07:42.824Z,39.37
2018-03-20T17:10:10.560Z,41.20
2018-03-20T17:12:38.271Z,44.37
2018-03-20T17:15:06.009Z,38.70
2018-03-20T17:17:39.389Z,40.87
2018-03-20T17:20:07.167Z,43.00
2018-03-20T17:22:35.143Z,32.43
2018-03-20T17:25:02.866Z,29.83
2018-03-20T17:27:31.601Z,27.00
2018-03-20T17:29:59.247Z,25.67
2018-03-20T17:32:28.000Z,28.77
2018-03-20T17:34:56.812Z,26.00
2018-03-20T17:37:24.536Z,26.10
2018-03-20T17:39:52.308Z,40.27
2018-03-20T17:42:20.063Z,46.20
2018-03-20T17:44:47.788Z,31.87
2018-03-20T17:47:15.654Z,28.23
2018-03-20T17:49:42.814Z,32.50
2018-03-20T17:52:10.581Z,29.97
2018-03-20T17:54:39.113Z,20.33
2018-03-20T17:57:06.902Z,20.47
2018-03-20T17:59:34.548Z,23.07
2018-03-20T18:02:03.844Z,22.20
2018-03-20T18:04:32.920Z,19.43
2018-03-20T18:07:00.601Z,20.23
2018-03-20T18:09:28.311Z,28.53
2018-03-20T18:11:56.092Z,20.80
2018-03-20T18:14:23.788Z,26.50
2018-03-20T18:16:51.455Z,22.70
2018-03-20T18:19:19.118Z,27.17
2018-03-20T18:21:46.759Z,28.73
2018-03-20T18:24:14.509Z,31.33
2018-03-20T18:26:42.244Z,21.67
2018-03-20T18:29:09.917Z,24.20
2018-03-20T18:31:37.612Z,24.03
2018-03-20T18:34:05.326Z,31.00
2018-03-20T18:36:33.020Z,23.93
2018-03-20T18:39:00.787Z,25.83
2018-03-20T18:41:28.649Z,25.20
2018-03-20T18:43:56.424Z,25.00
2018-03-20T18:46:24.148Z,34.10
2018-03-20T18:48:51.846Z,27.70
2018-03-20T18:51:19.546Z,31.73
2018-03-20T18:53:47.227Z,29.37
2018-03-20T18:56:14.963Z,30.53
2018-03-20T18:58:42.837Z,30.63
2018-03-20T19:01:10.523Z,27.27
2018-03-20T19:03:38.239Z,35.67
2018-03-20T19:06:05.958Z,24.30
2018-03-20T19:08:33.681Z,27.90
2018-03-20T19:11:01.381Z,33.57
2018-03-20T19:13:29.572Z,28.30
2018-03-20T19:15:58.805Z,30.10
2018-03-20T19:18:26.699Z,24.10
2018-03-20T19:20:54.989Z,21.07
2018-03-20T19:23:22.921Z,28.67
2018-03-20T19:25:50.585Z,24.67
2018-03-20T19:28:18.294Z,24.60
2018-03-20T19:30:46.042Z,26.27
2018-03-20T19:33:13.857Z,24.20
2018-03-20T19:35:41.647Z,25.90
2018-03-20T19:38:10.693Z,26.67
2018-03-20T19:40:40.968Z,24.07
2018-03-20T19:43:08.857Z,26.83
2018-03-20T19:45:36.890Z,27.13
2018-03-20T19:48:05.677Z,24.63
2018-03-20T19:50:33.504Z,21.60
2018-03-20T19:53:02.376Z,32.83
2018-03-20T19:55:31.885Z,19.70
2018-03-20T19:58:00.377Z,23.20
2018-03-20T20:00:30.618Z,18.47
2018-03-20T20:02:58.392Z,21.10
2018-03-20T20:05:26.335Z,23.93
2018-03-20T20:07:54.134Z,29.23
2018-03-20T20:10:22.062Z,22.63
2018-03-20T20:12:49.881Z,20.93
2018-03-20T20:15:17.571Z,23.27
2018-03-20T20:17:45.616Z,21.53
2018-03-20T20:20:14.459Z,22.73
2018-03-20T20:22:42.379Z,21.60
2018-03-20T20:25:10.126Z,29.30
2018-03-20T20:27:37.800Z,22.47
2018-03-20T20:30:05.682Z,30.50
2018-03-20T20:32:33.440Z,21.77
2018-03-20T20:35:01.169Z,28.33
2018-03-20T20:37:28.908Z,18.33
2018-03-20T20:39:56.686Z,20.27
2018-03-20T20:42:25.751Z,17.90
2018-03-20T20:44:58.250Z,24.57
2018-03-20T20:47:26.274Z,18.77
2018-03-20T20:49:55.095Z,33.47
2018-03-20T20:52:24.392Z,16.67
2018-03-20T20:54:52.220Z,23.17
2018-03-20T20:57:20.954Z,24.03
2018-03-20T20:59:49.016Z,17.47
2018-03-20T21:02:17.172Z,28.57
2018-03-20T21:04:44.964Z,23.20
2018-03-20T21:07:12.686Z,24.53
2018-03-20T21:09:40.671Z,27.47
2018-03-20T21:12:08.540Z,28.27
2018-03-20T21:14:36.307Z,28.07
2018-03-20T21:17:04.097Z,23.90
2018-03-20T21:19:32.184Z,30.30
2018-03-20T21:22:00.209Z,21.97
2018-03-20T21:24:27.886Z,22.57
2018-03-20T21:26:56.541Z,23.60
2018-03-20T21:29:24.214Z,22.67
2018-03-20T21:31:52.098Z,21.97
2018-03-20T21:34:20.131Z,22.30
2018-03-20T21:36:47.813Z,19.90
2018-03-20T21:39:15.489Z,17.23
2018-03-20T21:41:43.294Z,23.70
2018-03-20T21:44:12.433Z,22.37
2018-03-20T21:46:40.145Z,23.27
2018-03-20T21:49:08.586Z,20.50
2018-03-20T21:51:37.444Z,23.53
2018-03-20T21:54:05.306Z,22.50
2018-03-20T21:56:33.432Z,18.60
2018-03-20T21:59:01.358Z,18.70
2018-03-20T22:01:29.397Z,24.93
2018-03-20T22:03:57.068Z,20.70
2018-03-20T22:06:24.913Z,23.90
2018-03-20T22:08:52.789Z,32.47
2018-03-20T22:11:22.458Z,21.77
2018-03-20T22:13:50.337Z,21.30
2018-03-20T22:16:17.989Z,18.90
2018-03-20T22:18:45.887Z,17.83
2018-03-20T22:21:15.542Z,21.50
2018-03-20T22:23:43.235Z,21.33
2018-03-20T22:26:10.881Z,26.03
2018-03-20T22:28:38.573Z,25.87
2018-03-20T22:31:06.250Z,25.53
2018-03-20T22:33:33.867Z,24.13
2018-03-20T22:36:01.504Z,21.87
2018-03-20T22:38:29.171Z,21.30
2018-03-20T22:40:56.819Z,18.70
2018-03-20T22:43:24.499Z,20.60
2018-03-20T22:45:52.152Z,19.63
2018-03-20T22:48:19.815Z,19.80
2018-03-20T22:50:47.548Z,19.73
2018-03-20T22:53:15.229Z,19.90
2018-03-20T22:55:42.892Z,22.27
2018-03-20T22:58:10.617Z,19.60
2018-03-20T23:00:38.299Z,24.47
2018-03-20T23:03:05.906Z,23.20
2018-03-20T23:05:33.620Z,21.00
2018-03-20T23:08:01.205Z,18.33
2018-03-20T23:10:28.821Z,24.40
2018-03-20T23:12:56.495Z,17.07
2018-03-20T23:15:24.087Z,19.10
2018-03-20T23:17:51.725Z,19.57
2018-03-20T23:20:19.338Z,22.47
2018-03-20T23:22:47.011Z,14.23
2018-03-20T23:25:14.624Z,26.53
2018-03-20T23:27:42.326Z,20.97
2018-03-20T23:30:09.979Z,23.90
2018-03-20T23:32:37.627Z,19.40
2018-03-20T23:35:05.238Z,18.63
2018-03-20T23:37:32.898Z,17.43
2018-03-20T23:40:00.566Z,21.00
2018-03-20T23:42:28.154Z,25.33
2018-03-20T23:44:55.896Z,17.23
2018-03-20T23:47:23.496Z,17.93
2018-03-20T23:49:51.184Z,18.57
2018-03-20T23:52:18.830Z,19.30
2018-03-20T23:54:46.505Z,25.13
2018-03-20T23:57:14.121Z,19.27
2018-03-20T23:59:41.770Z,20.20
